Impacts TAF Board
For situational awareness. Not to be used for flight planning purposes.
IDs:

KLIT - Little Rock/Clinton, AR, US

Issued at 0538 UTC 18 Sep 2021
Updated at 0707 UTC 18 Sep 2021
Potential Impact None Slight Moderate High
Time0653Z 18/08Z 18/09Z 18/10Z 18/11Z 18/12Z 18/13Z 18/14Z 18/15Z 18/16Z 18/17Z 18/18Z 18/19Z 18/20Z>>
Type OBS PRVL PRVL PRVL
  [TEMP]  
PRVL
  [TEMP]  
PRVL
  [TEMP]  
PRVL
  [TEMP]  
PRVL PRVL PRVL PRVL PRVL PRVL PRVL
VIS 9 4 4 2
  [0.5]  
2
  [0.5]  
2
  [0.5]  
2
  [0.5]  
2 >6 >6 >6 >6 >6 6
CIG 7 9 9 6
  [6]  
6
  [6]  
6
  [6]  
6
  [6]  
6 20 20 20 20 20 35
Cover OVC OVC OVC OVC
  [OVC]  
OVC
  [OVC]  
OVC
  [OVC]  
OVC
  [OVC]  
OVC BKN BKN BKN BKN BKN OVC
FltCat IFR IFR IFR IFR
  [LIFR]  
IFR
  [LIFR]  
IFR
  [LIFR]  
IFR
  [LIFR]  
IFR MVFR MVFR MVFR MVFR MVFR VFR
WX -- BR BR BR
  [FG]  
BR
  [FG]  
BR
  [FG]  
BR
  [FG]  
BR VCSH VCSH VCSH VCSH VCSH -SHRA BR VCTS
WDir 20 30 30 40
[40]
40
[40]
40
[40]
40
[40]
40 80 80 80 80 80 90
WSpd 9 3 3 5
  [5]  
5
  [5]  
5
  [5]  
5
  [5]  
5 7 7 7 7 7 8
WGst -- -- -- --
  [--]  
--
  [--]  
--
  [--]  
--
  [--]  
-- -- -- -- -- -- --
Raw TAF
KLIT 180538Z 1806/1906 05004KT P6SM BKN015 OVC100
  FM180800 03003KT 4SM BR BKN009 OVC020
  FM181000 04005KT 2SM BR SCT004 BKN006 OVC020
  TEMPO 1810/1814 1/2SM FG
  FM181500 08007KT P6SM VCSH SCT010 BKN020
  FM182000 09008KT 6SM -SHRA BR VCTS BKN035CB OVC050
  FM190200 07004KT P6SM OVC050


Raw METAR
KLIT 180653Z 02009KT 9SM OVC007 24/22 A3002 RMK AO2 SLP166 T02390222
KLIT 180643Z 03006KT 8SM BKN007 OVC012 24/22 A3002 RMK AO2 T02390222
KLIT 180553Z 00000KT 10SM BKN017 23/22 A3002 RMK AO2 SLP166 60000 T02330222 10239 20228 403000211 58002
KLIT 180453Z 04003KT 10SM OVC016 23/22 A3003 RMK AO2 SLP170 T02330222

METAR Board
Radar Display
Forecast Discussion
For situational awareness. Not to be used for flight planning purposes.